Aviation Digital Data Service (ADDS)

Output produced by METARs form (1027 UTC 19 January 2019)
found at http://www.aviationweather.gov/metar/data/
 
EGYP 190950Z 32019KT 9999 FEW012 12/07 Q1001 BLU NOSIG
TAF EGYP 190715Z 1909/2003 33015G25KT CAVOK 520003 
     TEMPO 1909/1910 33025G35KT 530003 
     PROB30 
     TEMPO 1909/1910 VRB07KT SCT007 560003 
     BECMG 1910/1912 32015KT 50//// 
     BECMG 1921/1924 24010KT 
     PROB30 
     TEMPO 1922/2003 7000 -RADZ SCT008